createdAt,value
2018-05-24T00:00:56.885Z,3.63
2018-05-24T00:03:24.655Z,3.63
2018-05-24T00:05:52.900Z,3.87
2018-05-24T00:08:20.905Z,4.00
2018-05-24T00:10:48.869Z,3.43
2018-05-24T00:13:17.145Z,3.93
2018-05-24T00:15:45.441Z,3.80
2018-05-24T00:18:13.287Z,3.20
2018-05-24T00:20:41.560Z,3.30
2018-05-24T00:23:09.632Z,3.40
2018-05-24T00:25:37.457Z,3.70
2018-05-24T00:28:06.091Z,3.50
2018-05-24T00:30:34.515Z,3.10
2018-05-24T00:33:02.326Z,3.37
2018-05-24T00:35:30.656Z,3.70
2018-05-24T00:37:58.485Z,3.97
2018-05-24T00:40:26.343Z,4.00
2018-05-24T00:42:54.614Z,4.00
2018-05-24T00:45:22.586Z,4.40
2018-05-24T00:47:50.354Z,4.27
2018-05-24T00:50:19.135Z,3.50
2018-05-24T00:52:47.131Z,3.70
2018-05-24T00:55:27.327Z,3.93
2018-05-24T00:57:55.276Z,3.57
2018-05-24T01:00:22.982Z,3.70
2018-05-24T01:02:51.492Z,3.70
2018-05-24T01:05:19.647Z,3.43
2018-05-24T01:07:47.609Z,3.67
2018-05-24T01:10:15.895Z,3.80
2018-05-24T01:12:43.713Z,3.60
2018-05-24T01:15:11.615Z,3.23
2018-05-24T01:17:40.372Z,4.00
2018-05-24T01:20:08.556Z,4.07
2018-05-24T01:22:36.440Z,3.57
2018-05-24T01:25:04.730Z,3.70
2018-05-24T01:27:32.712Z,3.77
2018-05-24T01:30:00.675Z,3.87
2018-05-24T01:32:29.311Z,3.90
2018-05-24T01:34:57.422Z,3.47
2018-05-24T01:37:37.481Z,3.40
2018-05-24T01:40:05.547Z,4.43
2018-05-24T01:42:33.372Z,3.90
2018-05-24T01:45:01.811Z,3.67
2018-05-24T01:47:30.074Z,3.90
2018-05-24T01:49:57.931Z,3.43
2018-05-24T01:52:26.525Z,3.40
2018-05-24T01:54:54.596Z,3.90
2018-05-24T01:57:22.560Z,3.57
2018-05-24T01:59:50.761Z,3.83
2018-05-24T02:02:18.800Z,3.67
2018-05-24T02:04:46.770Z,3.83
2018-05-24T02:07:15.278Z,3.50
2018-05-24T02:09:43.625Z,3.87
2018-05-24T02:12:11.595Z,3.60
2018-05-24T02:14:40.309Z,3.73
2018-05-24T02:17:08.396Z,3.90
2018-05-24T02:19:36.226Z,3.80
2018-05-24T02:22:04.457Z,3.90
2018-05-24T02:24:32.770Z,4.20
2018-05-24T02:27:00.638Z,3.80
2018-05-24T02:29:29.331Z,3.90
2018-05-24T02:31:57.461Z,3.90
2018-05-24T02:34:25.397Z,3.93
2018-05-24T02:36:53.950Z,3.67
2018-05-24T02:39:22.093Z,4.10
2018-05-24T02:41:49.826Z,4.03
2018-05-24T02:44:18.486Z,4.40
2018-05-24T02:46:46.480Z,4.33
2018-05-24T02:49:14.409Z,4.17
2018-05-24T02:51:42.685Z,3.80
2018-05-24T02:54:10.783Z,3.90
2018-05-24T02:56:38.625Z,4.20
2018-05-24T02:59:06.901Z,3.80
2018-05-24T03:01:34.892Z,3.80
2018-05-24T03:04:02.811Z,3.77
2018-05-24T03:06:30.977Z,4.00
2018-05-24T03:08:59.182Z,4.37
2018-05-24T03:11:27.074Z,6.53
2018-05-24T03:13:55.564Z,3.90
2018-05-24T03:16:23.620Z,4.07
2018-05-24T03:18:51.469Z,4.30
2018-05-24T03:21:20.167Z,4.33
2018-05-24T03:23:48.327Z,4.10
2018-05-24T03:26:16.708Z,4.20
2018-05-24T03:28:44.878Z,4.50
2018-05-24T03:31:12.962Z,4.13
2018-05-24T03:33:41.205Z,4.50
2018-05-24T03:36:09.343Z,4.67
2018-05-24T03:38:37.159Z,4.50
2018-05-24T03:41:05.401Z,4.47
2018-05-24T03:43:33.710Z,5.10
2018-05-24T03:46:01.646Z,5.00
2018-05-24T03:48:29.696Z,4.93
2018-05-24T03:50:58.133Z,4.97
2018-05-24T03:53:25.981Z,5.20
2018-05-24T03:55:54.068Z,5.40
2018-05-24T03:58:22.966Z,4.93
2018-05-24T04:04:11.738Z,4.83
2018-05-24T04:06:39.915Z,4.93
2018-05-24T04:09:07.789Z,6.40
2018-05-24T04:11:36.433Z,21.83
2018-05-24T04:14:04.760Z,5.70
2018-05-24T04:16:32.607Z,4.43
2018-05-24T04:19:00.876Z,4.50
2018-05-24T04:21:28.951Z,5.07
2018-05-24T04:23:56.815Z,4.80
2018-05-24T04:26:25.561Z,4.30
2018-05-24T04:28:53.514Z,4.43
2018-05-24T04:31:21.748Z,4.60
2018-05-24T04:33:50.640Z,6.93
2018-05-24T04:36:18.484Z,5.40
2018-05-24T04:38:46.327Z,5.33
2018-05-24T04:41:15.348Z,6.63
2018-05-24T04:43:43.204Z,5.20
2018-05-24T04:46:11.001Z,5.00
2018-05-24T04:48:39.682Z,4.63
2018-05-24T04:51:07.648Z,4.47
2018-05-24T04:53:35.476Z,5.37
2018-05-24T04:56:04.608Z,4.10
2018-05-24T04:58:32.678Z,4.37
2018-05-24T05:01:01.039Z,4.13
2018-05-24T05:03:29.793Z,4.40
2018-05-24T05:05:57.852Z,4.23
2018-05-24T05:08:25.784Z,4.00
2018-05-24T05:10:54.166Z,4.20
2018-05-24T05:13:22.170Z,4.33
2018-05-24T05:15:50.101Z,4.20
2018-05-24T05:18:18.801Z,3.87
2018-05-24T05:20:46.652Z,3.97
2018-05-24T05:23:14.581Z,3.90
2018-05-24T05:25:42.838Z,3.60
2018-05-24T05:28:10.862Z,3.50
2018-05-24T05:30:38.928Z,4.27
2018-05-24T05:33:07.575Z,3.80
2018-05-24T05:35:35.536Z,3.80
2018-05-24T05:38:03.457Z,3.73
2018-05-24T05:40:32.152Z,3.80
2018-05-24T05:43:00.420Z,3.63
2018-05-24T05:45:28.255Z,3.50
2018-05-24T05:47:56.612Z,3.50
2018-05-24T05:50:24.816Z,3.67
2018-05-24T05:52:52.647Z,3.47
2018-05-24T05:55:20.782Z,3.70
2018-05-24T05:57:48.824Z,3.87
2018-05-24T06:00:16.690Z,3.90
2018-05-24T06:02:44.883Z,3.67
2018-05-24T06:05:13.105Z,3.97
2018-05-24T06:07:41.049Z,3.77
2018-05-24T06:10:09.407Z,3.63
2018-05-24T06:12:37.528Z,3.40
2018-05-24T06:15:05.606Z,3.50
2018-05-24T06:17:34.200Z,3.47
2018-05-24T06:20:02.274Z,3.87
2018-05-24T06:22:30.065Z,3.90
2018-05-24T06:24:58.397Z,3.50
2018-05-24T06:27:26.418Z,3.33
2018-05-24T06:29:54.294Z,3.73
2018-05-24T06:32:22.620Z,3.33
2018-05-24T06:34:51.042Z,3.50
2018-05-24T06:37:18.995Z,3.40
2018-05-24T06:39:47.268Z,3.57
2018-05-24T06:42:15.458Z,3.53
2018-05-24T06:44:43.529Z,3.40
2018-05-24T06:47:12.026Z,3.10
2018-05-24T06:49:40.541Z,3.33
2018-05-24T06:52:08.361Z,3.50
2018-05-24T06:54:36.625Z,3.40
2018-05-24T06:57:04.923Z,3.23
2018-05-24T06:59:32.828Z,2.97
2018-05-24T07:02:01.316Z,2.83
2018-05-24T07:04:29.439Z,4.10
2018-05-24T07:06:57.296Z,3.50
2018-05-24T07:09:26.809Z,8.57
2018-05-24T07:11:55.068Z,3.23
2018-05-24T07:14:22.945Z,3.90
2018-05-24T07:16:50.942Z,3.83
2018-05-24T07:19:19.388Z,4.10
2018-05-24T07:21:47.260Z,3.60
2018-05-24T07:24:15.646Z,3.20
2018-05-24T07:26:43.918Z,3.60
2018-05-24T07:29:11.786Z,3.00
2018-05-24T07:31:40.161Z,2.90
2018-05-24T07:34:08.953Z,2.87
2018-05-24T07:36:36.761Z,3.27
2018-05-24T07:39:05.218Z,3.20
2018-05-24T07:41:33.880Z,3.40
2018-05-24T07:44:01.746Z,3.10
2018-05-24T07:46:29.818Z,3.10
2018-05-24T07:48:58.149Z,3.13
2018-05-24T07:51:26.092Z,3.27
2018-05-24T07:53:54.138Z,3.80
2018-05-24T07:56:22.456Z,4.00
2018-05-24T07:58:50.612Z,2.97
2018-05-24T08:01:18.858Z,3.40
2018-05-24T08:03:47.341Z,2.70
2018-05-24T08:06:15.171Z,2.50
2018-05-24T08:08:43.300Z,2.50
2018-05-24T08:11:11.921Z,2.70
2018-05-24T08:13:39.728Z,2.77
2018-05-24T08:16:07.824Z,3.30
2018-05-24T08:18:36.380Z,2.87
2018-05-24T08:21:04.245Z,2.70
2018-05-24T08:23:32.648Z,2.80
2018-05-24T08:26:01.313Z,2.40
2018-05-24T08:28:29.176Z,2.60
2018-05-24T08:30:57.191Z,2.67
2018-05-24T08:33:25.522Z,2.50
2018-05-24T08:35:53.367Z,2.23
2018-05-24T08:38:21.565Z,2.20
2018-05-24T08:40:50.007Z,2.50
2018-05-24T08:43:17.912Z,2.00
2018-05-24T08:45:46.223Z,2.47
2018-05-24T08:48:14.668Z,2.20
2018-05-24T08:50:42.639Z,2.57
2018-05-24T08:53:10.920Z,2.27
2018-05-24T08:55:39.657Z,2.50
2018-05-24T08:58:07.464Z,2.40
2018-05-24T09:00:35.686Z,2.80
2018-05-24T09:03:03.898Z,2.33
2018-05-24T09:05:31.778Z,2.27
2018-05-24T09:08:00.177Z,2.57
2018-05-24T09:10:28.814Z,2.40
2018-05-24T09:12:56.729Z,2.80
2018-05-24T09:15:25.087Z,3.00
2018-05-24T09:17:53.745Z,2.40
2018-05-24T09:20:21.797Z,2.60
2018-05-24T09:22:50.124Z,4.00
2018-05-24T09:25:18.609Z,2.93
2018-05-24T09:27:46.634Z,2.37
2018-05-24T09:30:14.848Z,2.13
2018-05-24T09:32:43.123Z,2.23
2018-05-24T09:35:11.398Z,2.33
2018-05-24T09:37:39.572Z,2.97
2018-05-24T09:40:08.263Z,2.20
2018-05-24T09:42:36.228Z,2.40
2018-05-24T09:45:04.608Z,2.30
2018-05-24T09:47:33.114Z,2.20
2018-05-24T09:50:01.057Z,2.40
2018-05-24T09:52:29.228Z,2.10
2018-05-24T09:54:57.720Z,2.40
2018-05-24T09:57:25.477Z,2.10
2018-05-24T09:59:53.458Z,2.10
2018-05-24T10:02:21.891Z,1.90
2018-05-24T10:04:49.998Z,2.00
2018-05-24T10:07:18.097Z,2.20
2018-05-24T10:09:46.601Z,1.90
2018-05-24T10:12:14.411Z,2.30
2018-05-24T10:14:42.427Z,2.13
2018-05-24T10:17:11.084Z,2.00
2018-05-24T10:19:38.937Z,1.83
2018-05-24T10:22:07.112Z,2.00
2018-05-24T10:24:35.492Z,2.20
2018-05-24T10:27:03.362Z,1.87
2018-05-24T10:29:31.789Z,1.50
2018-05-24T10:32:00.157Z,1.97
2018-05-24T10:34:27.933Z,1.70
2018-05-24T10:36:56.112Z,1.53
2018-05-24T10:39:25.145Z,1.90
2018-05-24T10:41:53.023Z,2.10
2018-05-24T10:44:21.178Z,1.80
2018-05-24T10:46:49.662Z,1.60
2018-05-24T10:49:17.530Z,1.30
2018-05-24T10:51:45.808Z,1.63
2018-05-24T10:54:14.258Z,1.90
2018-05-24T10:56:42.300Z,1.80
2018-05-24T10:59:10.249Z,1.57
2018-05-24T11:01:38.498Z,1.67
2018-05-24T11:04:06.367Z,1.70
2018-05-24T11:06:34.582Z,1.47
2018-05-24T11:09:02.896Z,1.77
2018-05-24T11:11:30.904Z,1.80
2018-05-24T11:13:59.249Z,1.50
2018-05-24T11:16:27.540Z,1.47
2018-05-24T11:18:55.406Z,1.70
2018-05-24T11:21:23.613Z,1.77
2018-05-24T11:23:52.318Z,1.57
2018-05-24T11:26:20.170Z,1.83
2018-05-24T11:28:48.382Z,1.90
2018-05-24T11:31:16.685Z,1.97
2018-05-24T11:33:44.542Z,1.70
2018-05-24T11:36:12.546Z,1.63
2018-05-24T11:38:41.006Z,1.57
2018-05-24T11:41:08.832Z,1.90
2018-05-24T11:43:37.255Z,1.80
2018-05-24T11:46:05.489Z,1.90
2018-05-24T11:48:33.393Z,1.90
2018-05-24T11:51:01.563Z,2.30
2018-05-24T11:53:29.903Z,1.80
2018-05-24T11:55:57.805Z,2.40
2018-05-24T11:58:25.913Z,1.90
2018-05-24T12:00:54.163Z,1.90
2018-05-24T12:03:22.124Z,1.70
2018-05-24T12:05:50.262Z,1.80
2018-05-24T12:08:18.476Z,1.90
2018-05-24T12:10:46.343Z,1.60
2018-05-24T12:13:14.574Z,1.63
2018-05-24T12:15:42.965Z,1.70
2018-05-24T12:18:10.856Z,1.83
2018-05-24T12:20:39.078Z,1.67
2018-05-24T12:23:07.718Z,2.10
2018-05-24T12:25:35.555Z,2.20
2018-05-24T12:28:03.927Z,1.97
2018-05-24T12:30:32.243Z,1.77
2018-05-24T12:33:00.105Z,1.90
2018-05-24T12:35:28.321Z,1.63
2018-05-24T12:37:56.454Z,2.00
2018-05-24T12:40:24.411Z,1.97
2018-05-24T12:42:52.595Z,2.97
2018-05-24T12:45:20.985Z,1.57
2018-05-24T12:47:48.833Z,1.67
2018-05-24T12:50:17.230Z,1.93
2018-05-24T12:52:45.486Z,1.63
2018-05-24T12:55:13.417Z,1.53
2018-05-24T12:57:41.598Z,1.73
2018-05-24T13:00:09.690Z,1.33
2018-05-24T13:02:37.781Z,1.33
2018-05-24T13:05:06.223Z,1.43
2018-05-24T13:07:34.222Z,1.50
2018-05-24T13:10:02.205Z,1.43
2018-05-24T13:12:30.402Z,1.60
2018-05-24T13:14:58.649Z,1.50
2018-05-24T13:17:26.657Z,1.30
2018-05-24T13:19:54.679Z,1.43
2018-05-24T13:22:22.855Z,1.50
2018-05-24T13:24:50.729Z,1.53
2018-05-24T13:27:18.978Z,1.67
2018-05-24T13:29:47.073Z,1.50
2018-05-24T13:32:14.908Z,1.43
2018-05-24T13:34:44.069Z,1.50
2018-05-24T13:37:12.203Z,1.80
2018-05-24T13:39:40.273Z,1.63
2018-05-24T13:42:08.925Z,1.97
2018-05-24T13:44:37.133Z,1.97
2018-05-24T13:47:05.206Z,1.80
2018-05-24T13:49:33.608Z,1.90
2018-05-24T13:52:01.716Z,1.80
2018-05-24T13:54:29.521Z,1.83
2018-05-24T13:56:57.823Z,1.80
2018-05-24T13:59:25.880Z,1.80
2018-05-24T14:01:53.803Z,1.87
2018-05-24T14:04:21.860Z,2.03
2018-05-24T14:06:49.980Z,1.90
2018-05-24T14:09:17.884Z,2.17
2018-05-24T14:11:46.224Z,1.90
2018-05-24T14:14:14.396Z,2.10
2018-05-24T14:16:42.382Z,2.30
2018-05-24T14:19:10.882Z,1.80
2018-05-24T14:21:39.158Z,1.80
2018-05-24T14:24:06.917Z,2.10
2018-05-24T14:26:35.176Z,2.03
2018-05-24T14:29:03.249Z,2.10
2018-05-24T14:31:31.098Z,1.90
2018-05-24T14:33:59.406Z,2.20
2018-05-24T14:36:27.756Z,2.20
2018-05-24T14:38:55.646Z,2.20
2018-05-24T14:41:24.127Z,2.70
2018-05-24T14:43:52.447Z,2.20
2018-05-24T14:46:20.430Z,2.13
2018-05-24T14:48:49.048Z,2.77
2018-05-24T14:51:17.410Z,2.40
2018-05-24T14:53:45.332Z,2.60
2018-05-24T14:56:13.658Z,2.07
2018-05-24T14:58:41.904Z,2.80
2018-05-24T15:01:10.008Z,2.20
2018-05-24T15:03:38.429Z,1.87
2018-05-24T15:06:06.555Z,2.17
2018-05-24T15:08:34.539Z,2.00
2018-05-24T15:11:02.893Z,2.33
2018-05-24T15:13:42.906Z,1.80
2018-05-24T15:16:11.167Z,2.30
2018-05-24T15:18:39.025Z,2.57
2018-05-24T15:21:07.100Z,2.63
2018-05-24T15:23:35.428Z,4.40
2018-05-24T15:26:03.271Z,3.27
2018-05-24T15:28:31.723Z,10.73
2018-05-24T15:31:00.167Z,8.57
2018-05-24T15:33:28.182Z,11.07
2018-05-24T15:35:56.592Z,3.80
2018-05-24T15:38:25.053Z,3.07
2018-05-24T15:40:52.864Z,2.70
2018-05-24T15:43:21.259Z,1.80
2018-05-24T15:45:49.644Z,2.20
2018-05-24T15:48:17.592Z,2.60
2018-05-24T15:50:45.868Z,3.20
2018-05-24T15:53:14.282Z,2.90
2018-05-24T15:55:42.070Z,2.50
2018-05-24T15:58:10.290Z,2.13
2018-05-24T16:00:38.385Z,2.20
2018-05-24T16:03:06.425Z,1.97
2018-05-24T16:05:34.599Z,2.10
2018-05-24T16:08:02.981Z,2.10
2018-05-24T16:10:30.780Z,2.00
2018-05-24T16:12:59.118Z,2.63
2018-05-24T16:15:27.346Z,2.00
2018-05-24T16:17:55.262Z,2.23
2018-05-24T16:20:23.773Z,2.17
2018-05-24T16:22:52.506Z,2.37
2018-05-24T16:25:20.613Z,2.20
2018-05-24T16:27:48.901Z,2.07
2018-05-24T16:30:17.478Z,2.40
2018-05-24T16:32:45.280Z,2.10
2018-05-24T16:35:13.404Z,2.50
2018-05-24T16:37:41.860Z,2.20
2018-05-24T16:40:09.968Z,2.30
2018-05-24T16:42:38.031Z,2.37
2018-05-24T16:45:06.481Z,2.20
2018-05-24T16:47:34.518Z,2.30
2018-05-24T16:50:02.811Z,2.40
2018-05-24T16:52:31.520Z,2.40
2018-05-24T16:54:59.509Z,2.30
2018-05-24T16:57:27.703Z,2.30
2018-05-24T16:59:56.263Z,2.30
2018-05-24T17:02:24.137Z,2.20
2018-05-24T17:04:52.269Z,2.63
2018-05-24T17:07:20.417Z,2.87
2018-05-24T17:09:48.342Z,2.23
2018-05-24T17:12:16.625Z,2.20
2018-05-24T17:14:45.108Z,2.37
2018-05-24T17:17:12.925Z,2.23
2018-05-24T17:19:41.103Z,2.30
2018-05-24T17:22:09.500Z,2.77
2018-05-24T17:24:37.356Z,2.90
2018-05-24T17:27:05.492Z,2.50
2018-05-24T17:29:33.754Z,2.63
2018-05-24T17:32:01.548Z,2.20
2018-05-24T17:34:29.770Z,2.77
2018-05-24T17:36:58.192Z,2.67
2018-05-24T17:39:25.968Z,3.30
2018-05-24T17:41:54.393Z,2.57
2018-05-24T17:44:22.775Z,2.73
2018-05-24T17:46:50.533Z,2.50
2018-05-24T17:49:18.606Z,3.20
2018-05-24T17:51:46.910Z,2.40
2018-05-24T17:54:14.726Z,3.10
2018-05-24T17:56:42.762Z,2.50
2018-05-24T17:59:11.247Z,2.90
2018-05-24T18:01:39.166Z,2.83
2018-05-24T18:04:07.355Z,2.87
2018-05-24T18:06:35.917Z,2.80
2018-05-24T18:09:03.961Z,2.67
2018-05-24T18:11:32.093Z,2.90
2018-05-24T18:14:00.395Z,2.60
2018-05-24T18:16:28.350Z,2.77
2018-05-24T18:18:56.485Z,2.27
2018-05-24T18:21:24.695Z,2.50
2018-05-24T18:23:52.649Z,2.70
2018-05-24T18:26:20.902Z,2.50
2018-05-24T18:28:49.932Z,3.47
2018-05-24T18:31:17.766Z,2.57
2018-05-24T18:33:46.119Z,2.30
2018-05-24T18:36:14.521Z,2.80
2018-05-24T18:38:42.431Z,2.33
2018-05-24T18:41:10.640Z,2.40
2018-05-24T18:43:39.177Z,2.63
2018-05-24T18:46:07.342Z,2.90
2018-05-24T18:48:35.636Z,3.03
2018-05-24T18:51:04.239Z,2.83
2018-05-24T18:53:32.356Z,2.90
2018-05-24T18:56:00.525Z,3.13
2018-05-24T18:58:28.584Z,2.70
2018-05-24T19:00:57.123Z,2.53
2018-05-24T19:03:25.360Z,3.80
2018-05-24T19:05:53.656Z,3.17
2018-05-24T19:08:21.910Z,2.80
2018-05-24T19:10:50.180Z,2.77
2018-05-24T19:13:18.469Z,2.70
2018-05-24T19:15:47.143Z,3.33
2018-05-24T19:18:15.219Z,2.90
2018-05-24T19:20:43.482Z,2.90
2018-05-24T19:23:11.765Z,2.90
2018-05-24T19:25:39.945Z,2.57
2018-05-24T19:28:08.282Z,2.93
2018-05-24T19:30:36.597Z,2.97
2018-05-24T19:33:04.664Z,2.90
2018-05-24T19:35:32.838Z,2.60
2018-05-24T19:38:01.129Z,2.63
2018-05-24T19:40:29.389Z,3.37
2018-05-24T19:42:57.457Z,2.70
2018-05-24T19:45:25.620Z,3.67
2018-05-24T19:47:53.913Z,3.20
2018-05-24T19:50:22.134Z,3.60
2018-05-24T19:52:50.254Z,3.50
2018-05-24T19:55:18.530Z,3.33
2018-05-24T19:57:46.602Z,3.30
2018-05-24T20:00:14.752Z,3.17
2018-05-24T20:02:43.052Z,3.20
2018-05-24T20:05:11.482Z,3.37
2018-05-24T20:07:39.818Z,3.40
2018-05-24T20:10:07.980Z,3.13
2018-05-24T20:12:36.363Z,2.90
2018-05-24T20:15:04.613Z,3.17
2018-05-24T20:17:33.124Z,3.40
2018-05-24T20:20:01.548Z,2.87
2018-05-24T20:22:29.553Z,3.00
2018-05-24T20:24:57.878Z,3.90
2018-05-24T20:27:26.372Z,3.80
2018-05-24T20:29:54.276Z,3.90
2018-05-24T20:32:22.395Z,4.17
2018-05-24T20:34:50.479Z,3.20
2018-05-24T20:37:18.403Z,3.10
2018-05-24T20:39:46.885Z,4.53
2018-05-24T20:42:15.190Z,4.00
2018-05-24T20:44:43.315Z,4.10
2018-05-24T20:47:12.229Z,4.50
2018-05-24T20:49:40.647Z,4.70
2018-05-24T20:52:08.686Z,5.10
2018-05-24T20:54:36.812Z,4.57
2018-05-24T20:57:05.149Z,7.27
2018-05-24T20:59:33.116Z,4.40
2018-05-24T21:02:01.572Z,3.37
2018-05-24T21:04:30.490Z,3.70
2018-05-24T21:06:58.434Z,3.33
2018-05-24T21:09:26.783Z,5.37
2018-05-24T21:11:54.964Z,4.47
2018-05-24T21:14:22.958Z,4.07
2018-05-24T21:16:51.150Z,4.10
2018-05-24T21:19:19.705Z,3.77
2018-05-24T21:21:48.769Z,4.07
2018-05-24T21:24:17.167Z,5.53
2018-05-24T21:26:45.564Z,4.23
2018-05-24T21:29:13.838Z,3.90
2018-05-24T21:31:42.219Z,4.17
2018-05-24T21:34:10.492Z,3.60
2018-05-24T21:36:38.908Z,3.70
2018-05-24T21:39:07.157Z,4.00
2018-05-24T21:41:35.729Z,3.57
2018-05-24T21:44:03.714Z,3.83
2018-05-24T21:46:31.907Z,3.80
2018-05-24T21:49:00.148Z,3.97
2018-05-24T21:51:28.015Z,3.93
2018-05-24T21:53:56.340Z,4.27
2018-05-24T21:56:24.481Z,4.60
2018-05-24T21:58:52.533Z,4.17
2018-05-24T22:01:21.058Z,3.83
2018-05-24T22:03:49.287Z,4.07
2018-05-24T22:06:17.163Z,4.17
2018-05-24T22:08:45.573Z,3.97
2018-05-24T22:11:13.739Z,4.07
2018-05-24T22:13:41.811Z,4.33
2018-05-24T22:16:10.162Z,4.17
2018-05-24T22:18:38.541Z,4.03
2018-05-24T22:21:06.578Z,4.23
2018-05-24T22:23:34.922Z,5.20
2018-05-24T22:26:03.711Z,4.90
2018-05-24T22:28:31.645Z,5.57
2018-05-24T22:30:59.834Z,4.23
2018-05-24T22:33:28.117Z,3.87
2018-05-24T22:35:56.001Z,4.63
2018-05-24T22:38:24.277Z,4.30
2018-05-24T22:40:53.037Z,4.23
2018-05-24T22:43:20.838Z,5.10
2018-05-24T22:45:48.888Z,6.90
2018-05-24T22:48:17.490Z,5.00
2018-05-24T22:50:45.554Z,4.80
2018-05-24T22:53:14.126Z,4.67
2018-05-24T22:55:42.375Z,4.90
2018-05-24T22:58:10.216Z,4.87
2018-05-24T23:00:38.481Z,6.07
2018-05-24T23:03:06.983Z,4.57
2018-05-24T23:05:34.862Z,4.30
2018-05-24T23:08:03.037Z,4.17
2018-05-24T23:10:31.501Z,4.20
2018-05-24T23:12:59.513Z,4.47
2018-05-24T23:15:27.867Z,4.30
2018-05-24T23:17:56.051Z,4.40
2018-05-24T23:20:24.144Z,4.50
2018-05-24T23:22:52.484Z,4.83
2018-05-24T23:25:20.767Z,4.60
2018-05-24T23:27:48.731Z,4.40
2018-05-24T23:30:16.885Z,3.87
2018-05-24T23:32:45.283Z,4.47
2018-05-24T23:35:13.098Z,4.90
2018-05-24T23:37:41.441Z,4.20
2018-05-24T23:40:09.756Z,4.00
2018-05-24T23:42:37.742Z,4.13
2018-05-24T23:45:05.948Z,4.10
2018-05-24T23:47:34.483Z,4.03
2018-05-24T23:50:02.395Z,3.80
2018-05-24T23:52:31.057Z,3.97
2018-05-24T23:54:59.661Z,3.53
2018-05-24T23:57:27.630Z,3.53
2018-05-24T23:59:55.905Z,3.53
